Woodbine, Iowa
Current Conditions -  °F | °C
As of 2:55 AM on Wednesday 26 Nov 2014 (Local Time) from KHNR Reporting Station
Light Snow Light Snow  
Wind Chill: -4°   Ceiling: 500
Heat Index:   Visibility: 2.5mi
Dew Point:   Wind: 8mph
Humidity: 100%   Direction: 170°S
Pressure: 29.85"   Gusts: NA
Location:  41.74°N, 95.7°W
Report Text: KHNR 260855Z AUTO 17007KT 2 1/2SM -SN OVC005 00/00 A2985 RMK AO2 P0002
Loading
Personal Weather Stations






























Interactive Weather Map New forecast layout! Learn more

10-Day Weather Forecast

Advertisements
Track Severe Weather on mobile